createdAt,value
2018-09-17T00:00:53.548Z,0
2018-09-17T00:02:03.698Z,0
2018-09-17T00:03:13.275Z,0
2018-09-17T00:04:23.126Z,0
2018-09-17T00:05:33.033Z,0
2018-09-17T00:06:42.892Z,0
2018-09-17T00:07:52.744Z,0
2018-09-17T00:09:02.601Z,0
2018-09-17T00:10:12.181Z,0
2018-09-17T00:11:22.307Z,0
2018-09-17T00:12:31.897Z,0
2018-09-17T00:13:41.482Z,0
2018-09-17T00:14:51.338Z,0
2018-09-17T00:16:01.191Z,0
2018-09-17T00:17:11.094Z,0
2018-09-17T00:18:21.222Z,0
2018-09-17T00:19:31.347Z,0
2018-09-17T00:20:41.198Z,0
2018-09-17T00:21:51.341Z,0
2018-09-17T00:23:01.572Z,0
2018-09-17T00:24:10.874Z,0
2018-09-17T00:25:21.015Z,0
2018-09-17T00:26:31.154Z,0
2018-09-17T00:27:41.282Z,0
2018-09-17T00:28:51.183Z,0
2018-09-17T00:30:01.312Z,0
2018-09-17T00:31:11.438Z,0
2018-09-17T00:32:21.574Z,0
2018-09-17T00:33:31.423Z,0
2018-09-17T00:34:41.272Z,0
2018-09-17T00:35:51.404Z,0
2018-09-17T00:37:00.988Z,0
2018-09-17T00:38:10.837Z,0
2018-09-17T00:39:20.690Z,0
2018-09-17T00:40:30.821Z,0
2018-09-17T00:41:40.671Z,0
2018-09-17T00:42:50.797Z,0
2018-09-17T00:44:00.987Z,0
2018-09-17T00:45:10.299Z,0
2018-09-17T00:46:20.426Z,0
2018-09-17T00:47:30.275Z,0
2018-09-17T00:48:40.400Z,0
2018-09-17T00:49:50.533Z,0
2018-09-17T00:51:00.662Z,0
2018-09-17T00:52:10.791Z,0
2018-09-17T00:53:20.641Z,0
2018-09-17T00:54:29.948Z,0
2018-09-17T00:55:39.805Z,0
2018-09-17T00:56:49.659Z,0
2018-09-17T00:58:00.616Z,0
2018-09-17T00:59:10.817Z,0
2018-09-17T01:00:20.950Z,0
2018-09-17T01:01:30.809Z,0
2018-09-17T01:02:40.660Z,0
2018-09-17T01:03:50.564Z,0
2018-09-17T01:05:00.735Z,0
2018-09-17T01:06:10.369Z,0
2018-09-17T01:07:20.227Z,0
2018-09-17T01:08:30.081Z,0
2018-09-17T01:09:39.936Z,0
2018-09-17T01:10:49.790Z,0
2018-09-17T01:11:59.938Z,0
2018-09-17T01:13:09.794Z,0
2018-09-17T01:14:19.926Z,0
2018-09-17T01:15:30.063Z,0
2018-09-17T01:16:40.201Z,0
2018-09-17T01:17:49.784Z,0
2018-09-17T01:18:59.913Z,0
2018-09-17T01:20:09.765Z,0
2018-09-17T01:21:19.666Z,0
2018-09-17T01:22:29.520Z,0
2018-09-17T01:23:39.647Z,0
2018-09-17T01:24:49.514Z,0
2018-09-17T01:25:59.365Z,0
2018-09-17T01:27:09.224Z,0
2018-09-17T01:28:19.349Z,0
2018-09-17T01:29:28.652Z,0
2018-09-17T01:30:38.877Z,0
2018-09-17T01:31:49.182Z,0
2018-09-17T01:32:59.089Z,0
2018-09-17T01:34:09.232Z,0
2018-09-17T01:35:19.363Z,0
2018-09-17T01:36:29.225Z,0
2018-09-17T01:37:38.821Z,0
2018-09-17T01:38:49.007Z,0
2018-09-17T01:39:59.134Z,0
2018-09-17T01:41:08.715Z,0
2018-09-17T01:42:18.851Z,0
2018-09-17T01:43:28.705Z,0
2018-09-17T01:44:38.832Z,0
2018-09-17T01:45:48.959Z,0
2018-09-17T01:46:59.099Z,0
2018-09-17T01:48:09.005Z,0
2018-09-17T01:49:19.130Z,0
2018-09-17T01:50:28.985Z,0
2018-09-17T01:51:38.842Z,0
2018-09-17T01:52:48.974Z,0
2018-09-17T01:53:59.097Z,0
2018-09-17T01:55:08.957Z,0
2018-09-17T01:56:18.545Z,0
2018-09-17T01:57:28.401Z,0
2018-09-17T01:58:38.527Z,0
2018-09-17T01:59:48.656Z,0
2018-09-17T02:00:58.788Z,0
2018-09-17T02:02:07.868Z,0
2018-09-17T02:03:18.011Z,0
2018-09-17T02:04:27.869Z,0
2018-09-17T02:05:37.996Z,0
2018-09-17T02:06:48.122Z,0
2018-09-17T02:07:58.249Z,0
2018-09-17T02:09:08.339Z,0
2018-09-17T02:10:18.261Z,0
2018-09-17T02:11:28.393Z,0
2018-09-17T02:12:38.243Z,0
2018-09-17T02:13:48.372Z,0
2018-09-17T02:14:58.505Z,0
2018-09-17T02:16:08.641Z,0
2018-09-17T02:17:18.234Z,0
2018-09-17T02:18:28.083Z,0
2018-09-17T02:19:37.998Z,0
2018-09-17T02:20:48.139Z,0
2018-09-17T02:21:58.264Z,0
2018-09-17T02:23:08.115Z,0
2018-09-17T02:24:18.253Z,0
2018-09-17T02:25:28.111Z,0
2018-09-17T02:26:38.246Z,0
2018-09-17T02:27:48.383Z,0
2018-09-17T02:28:57.689Z,0
2018-09-17T02:30:07.273Z,0
2018-09-17T02:31:17.463Z,0
2018-09-17T02:32:27.605Z,0
2018-09-17T02:33:37.469Z,0
2018-09-17T02:34:47.047Z,0
2018-09-17T02:35:56.909Z,0
2018-09-17T02:37:07.089Z,0
2018-09-17T02:38:16.950Z,0
2018-09-17T02:39:26.600Z,0
2018-09-17T02:40:36.729Z,0
2018-09-17T02:41:46.869Z,0
2018-09-17T02:42:57.003Z,0
2018-09-17T02:44:06.868Z,0
2018-09-17T02:45:17.057Z,0
2018-09-17T02:46:26.362Z,0
2018-09-17T02:47:36.519Z,0
2018-09-17T02:48:46.372Z,0
2018-09-17T02:49:56.225Z,0
2018-09-17T02:51:06.091Z,0
2018-09-17T02:52:15.742Z,0
2018-09-17T02:53:25.972Z,0
2018-09-17T02:54:35.945Z,0
2018-09-17T02:55:46.073Z,0
2018-09-17T02:56:55.929Z,0
2018-09-17T02:58:05.509Z,0
2018-09-17T02:59:15.638Z,0
2018-09-17T03:00:25.559Z,0
2018-09-17T03:01:35.703Z,0
2018-09-17T03:02:45.558Z,0
2018-09-17T03:03:55.687Z,0
2018-09-17T03:05:05.819Z,0
2018-09-17T03:06:15.948Z,0
2018-09-17T03:07:26.072Z,0
2018-09-17T03:08:35.927Z,0
2018-09-17T03:09:46.086Z,0
2018-09-17T03:10:55.949Z,0
2018-09-17T03:12:06.075Z,0
2018-09-17T03:13:15.655Z,0
2018-09-17T03:14:25.529Z,0
2018-09-17T03:15:35.670Z,0
2018-09-17T03:16:45.255Z,0
2018-09-17T03:17:55.428Z,0
2018-09-17T03:19:05.281Z,0
2018-09-17T03:20:14.869Z,0
2018-09-17T03:21:25.005Z,0
2018-09-17T03:22:34.860Z,0
2018-09-17T03:23:44.783Z,0
2018-09-17T03:24:54.366Z,0
2018-09-17T03:26:03.672Z,0
2018-09-17T03:27:13.802Z,0
2018-09-17T03:28:23.654Z,0
2018-09-17T03:29:33.835Z,0
2018-09-17T03:30:43.429Z,0
2018-09-17T03:31:53.329Z,0
2018-09-17T03:33:03.460Z,0
2018-09-17T03:34:13.322Z,0
2018-09-17T03:35:23.519Z,0
2018-09-17T03:36:33.654Z,0
2018-09-17T03:37:43.803Z,0
2018-09-17T03:38:53.953Z,0
2018-09-17T03:40:03.811Z,0
2018-09-17T03:41:13.397Z,0
2018-09-17T03:42:22.982Z,0
2018-09-17T03:43:32.291Z,0
2018-09-17T03:44:41.872Z,0
2018-09-17T03:45:51.731Z,0
2018-09-17T03:47:02.053Z,0
2018-09-17T03:48:11.914Z,0
2018-09-17T03:49:21.822Z,0
2018-09-17T03:50:31.956Z,0
2018-09-17T03:51:41.810Z,0
2018-09-17T03:52:51.669Z,0
2018-09-17T03:54:01.517Z,0
2018-09-17T03:55:11.096Z,0
2018-09-17T03:56:21.224Z,0
2018-09-17T03:57:31.361Z,0
2018-09-17T03:58:41.268Z,0
2018-09-17T03:59:51.401Z,0
2018-09-17T04:01:01.257Z,0
2018-09-17T04:02:11.122Z,0
2018-09-17T04:03:20.703Z,0
2018-09-17T04:04:30.663Z,0
2018-09-17T04:05:40.809Z,0
2018-09-17T04:06:50.663Z,0
2018-09-17T04:08:00.795Z,0
2018-09-17T04:09:10.984Z,0
2018-09-17T04:10:21.174Z,0
2018-09-17T04:11:31.030Z,0
2018-09-17T04:12:40.883Z,0
2018-09-17T04:13:51.020Z,0
2018-09-17T04:15:00.603Z,0
2018-09-17T04:16:10.739Z,0
2018-09-17T04:17:20.603Z,0
2018-09-17T04:18:30.730Z,0
2018-09-17T04:19:40.859Z,0
2018-09-17T04:20:50.709Z,0
2018-09-17T04:22:00.579Z,0
2018-09-17T04:23:10.434Z,0
2018-09-17T04:24:20.292Z,0
2018-09-17T04:25:30.144Z,0
2018-09-17T04:26:40.008Z,0
2018-09-17T04:27:49.874Z,0
2018-09-17T04:29:00.015Z,0
2018-09-17T04:30:09.597Z,0
2018-09-17T04:31:19.450Z,0
2018-09-17T04:32:29.306Z,0
2018-09-17T04:33:39.498Z,0
2018-09-17T04:34:49.079Z,0
2018-09-17T04:35:59.204Z,0
2018-09-17T04:37:08.784Z,0
2018-09-17T04:38:18.369Z,0
2018-09-17T04:39:28.000Z,0
2018-09-17T04:40:38.133Z,0
2018-09-17T04:41:48.023Z,5
2018-09-17T04:42:58.163Z,5
2018-09-17T04:44:08.017Z,5
2018-09-17T04:45:18.199Z,5
2018-09-17T04:46:28.335Z,5
2018-09-17T04:47:38.195Z,5
2018-09-17T04:48:48.341Z,5
2018-09-17T04:49:57.649Z,5
2018-09-17T04:51:07.843Z,10
2018-09-17T04:52:17.694Z,10
2018-09-17T04:53:27.545Z,10
2018-09-17T04:54:37.399Z,10
2018-09-17T04:55:47.529Z,10
2018-09-17T04:56:57.707Z,15
2018-09-17T04:58:07.281Z,15
2018-09-17T04:59:17.416Z,20
2018-09-17T05:00:27.555Z,20
2018-09-17T05:01:37.730Z,20
2018-09-17T05:02:47.865Z,20
2018-09-17T05:03:57.721Z,25
2018-09-17T05:05:07.846Z,25
2018-09-17T05:06:17.968Z,30
2018-09-17T05:07:28.773Z,30
2018-09-17T05:08:38.687Z,30
2018-09-17T05:09:48.536Z,35
2018-09-17T05:10:58.675Z,35
2018-09-17T05:12:08.807Z,40
2018-09-17T05:13:19.715Z,40
2018-09-17T05:14:30.055Z,45
2018-09-17T05:15:40.196Z,45
2018-09-17T05:16:50.048Z,50
2018-09-17T05:18:00.180Z,50
2018-09-17T05:19:10.308Z,50
2018-09-17T05:20:19.658Z,50
2018-09-17T05:21:29.236Z,50
2018-09-17T05:22:39.094Z,50
2018-09-17T05:23:48.951Z,55
2018-09-17T05:24:58.535Z,60
2018-09-17T05:26:08.441Z,60
2018-09-17T05:27:18.566Z,65
2018-09-17T05:28:28.775Z,65
2018-09-17T05:29:38.363Z,65
2018-09-17T05:30:48.498Z,70
2018-09-17T05:31:58.674Z,70
2018-09-17T05:33:08.525Z,70
2018-09-17T05:34:18.653Z,70
2018-09-17T05:35:28.511Z,70
2018-09-17T05:36:38.641Z,70
2018-09-17T05:37:48.827Z,80
2018-09-17T05:38:58.950Z,75
2018-09-17T05:40:08.803Z,75
2018-09-17T05:41:18.931Z,80
2018-09-17T05:42:28.786Z,80
2018-09-17T05:43:38.918Z,80
2018-09-17T05:44:49.046Z,85
2018-09-17T05:45:59.170Z,85
2018-09-17T05:47:09.037Z,85
2018-09-17T05:48:18.885Z,90
2018-09-17T05:49:28.460Z,90
2018-09-17T05:50:38.585Z,95
2018-09-17T05:51:48.447Z,95
2018-09-17T05:52:58.584Z,100
2018-09-17T05:54:08.444Z,105
2018-09-17T05:55:18.573Z,110
2018-09-17T05:56:28.427Z,115
2018-09-17T05:57:38.279Z,115
2018-09-17T05:58:48.136Z,115
2018-09-17T05:59:57.711Z,115
2018-09-17T06:01:07.620Z,115
2018-09-17T06:02:17.749Z,120
2018-09-17T06:03:27.608Z,115
2018-09-17T06:04:37.734Z,115
2018-09-17T06:05:48.474Z,115
2018-09-17T06:06:58.729Z,120
2018-09-17T06:08:08.649Z,120
2018-09-17T06:09:18.509Z,120
2018-09-17T06:10:28.633Z,125
2018-09-17T06:11:38.773Z,125
2018-09-17T06:12:49.016Z,135
2018-09-17T06:13:58.592Z,130
2018-09-17T06:15:08.173Z,130
2018-09-17T06:16:18.305Z,130
2018-09-17T06:17:28.530Z,130
2018-09-17T06:18:38.720Z,135
2018-09-17T06:19:48.852Z,140
2018-09-17T06:20:58.974Z,145
2018-09-17T06:22:08.556Z,150
2018-09-17T06:23:19.041Z,150
2018-09-17T06:24:28.399Z,150
2018-09-17T06:25:37.974Z,150
2018-09-17T06:26:48.426Z,155
2018-09-17T06:27:58.584Z,155
2018-09-17T06:29:08.458Z,155
2018-09-17T06:30:18.637Z,160
2018-09-17T06:31:28.762Z,165
2018-09-17T06:32:38.613Z,160
2018-09-17T06:33:48.736Z,165
2018-09-17T06:34:58.173Z,160
2018-09-17T06:36:08.214Z,165
2018-09-17T06:37:18.346Z,165
2018-09-17T06:38:27.647Z,170
2018-09-17T06:39:37.508Z,175
2018-09-17T06:40:47.632Z,175
2018-09-17T06:41:57.811Z,175
2018-09-17T06:43:07.457Z,180
2018-09-17T06:44:17.307Z,180
2018-09-17T06:45:26.615Z,180
2018-09-17T06:46:36.743Z,185
2018-09-17T06:47:46.096Z,180
2018-09-17T06:48:56.232Z,180
2018-09-17T06:50:05.807Z,185
2018-09-17T06:51:15.380Z,185
2018-09-17T06:52:25.503Z,185
2018-09-17T06:53:35.743Z,185
2018-09-17T06:54:45.662Z,185
2018-09-17T06:55:55.794Z,185
2018-09-17T06:57:05.646Z,190
2018-09-17T06:58:15.490Z,190
2018-09-17T06:59:25.393Z,190
2018-09-17T07:00:34.972Z,190
2018-09-17T07:01:45.099Z,195
2018-09-17T07:02:54.401Z,195
2018-09-17T07:04:04.260Z,195
2018-09-17T07:05:14.435Z,195
2018-09-17T07:06:24.812Z,200
2018-09-17T07:07:34.933Z,200
2018-09-17T07:08:45.059Z,195
2018-09-17T07:09:55.181Z,195
2018-09-17T07:11:05.353Z,195
2018-09-17T07:12:15.210Z,200
2018-09-17T07:13:24.784Z,200
2018-09-17T07:14:34.633Z,195
2018-09-17T07:15:44.791Z,195
2018-09-17T07:16:54.693Z,200
2018-09-17T07:18:04.384Z,200
2018-09-17T07:19:14.219Z,200
2018-09-17T07:20:24.069Z,200
2018-09-17T07:21:33.916Z,195
2018-09-17T07:22:43.824Z,190
2018-09-17T07:23:53.703Z,190
2018-09-17T07:25:03.832Z,195
2018-09-17T07:26:13.410Z,200
2018-09-17T07:27:23.538Z,205
2018-09-17T07:28:33.162Z,205
2018-09-17T07:29:42.737Z,205
2018-09-17T07:30:52.859Z,205
2018-09-17T07:32:02.984Z,210
2018-09-17T07:33:12.835Z,220
2018-09-17T07:34:22.740Z,220
2018-09-17T07:35:32.886Z,220
2018-09-17T07:36:43.211Z,225
2018-09-17T07:37:53.336Z,230
2018-09-17T07:39:03.197Z,230
2018-09-17T07:40:12.881Z,225
2018-09-17T07:41:23.000Z,230
2018-09-17T07:42:32.866Z,235
2018-09-17T07:43:42.716Z,240
2018-09-17T07:44:52.859Z,250
2018-09-17T07:46:03.032Z,260
2018-09-17T07:47:13.159Z,260
2018-09-17T07:48:23.287Z,260
2018-09-17T07:49:33.141Z,265
2018-09-17T07:50:43.265Z,265
2018-09-17T07:51:53.164Z,265
2018-09-17T07:53:03.235Z,260
2018-09-17T07:54:13.086Z,260
2018-09-17T07:55:23.215Z,265
2018-09-17T07:56:32.786Z,270
2018-09-17T07:57:42.137Z,275
2018-09-17T07:58:52.412Z,280
2018-09-17T08:00:02.545Z,280
2018-09-17T08:01:12.397Z,270
2018-09-17T08:02:22.250Z,265
2018-09-17T08:03:32.207Z,265
2018-09-17T08:04:42.349Z,260
2018-09-17T08:05:52.956Z,255
2018-09-17T08:07:02.821Z,260
2018-09-17T08:08:12.419Z,260
2018-09-17T08:09:23.176Z,265
2018-09-17T08:10:33.029Z,275
2018-09-17T08:11:43.153Z,280
2018-09-17T08:12:53.273Z,300
2018-09-17T08:14:03.400Z,295
2018-09-17T08:15:13.576Z,295
2018-09-17T08:16:23.151Z,290
2018-09-17T08:17:33.002Z,290
2018-09-17T08:18:42.862Z,290
2018-09-17T08:19:53.047Z,295
2018-09-17T08:21:03.179Z,300
2018-09-17T08:22:13.312Z,305
2018-09-17T08:23:22.888Z,295
2018-09-17T08:24:33.291Z,300
2018-09-17T08:25:43.774Z,310
2018-09-17T08:26:53.629Z,310
2018-09-17T08:28:03.206Z,315
2018-09-17T08:29:13.065Z,315
2018-09-17T08:30:22.654Z,315
2018-09-17T08:31:32.463Z,315
2018-09-17T08:32:42.037Z,315
2018-09-17T08:33:52.165Z,315
2018-09-17T08:35:02.025Z,315
2018-09-17T08:36:11.892Z,320
2018-09-17T08:37:21.772Z,320
2018-09-17T08:38:31.643Z,320
2018-09-17T08:39:41.221Z,310
2018-09-17T08:40:51.348Z,300
2018-09-17T08:42:01.206Z,295
2018-09-17T08:43:11.058Z,300
2018-09-17T08:44:20.641Z,325
2018-09-17T08:45:30.598Z,340
2018-09-17T08:46:40.703Z,350
2018-09-17T08:47:50.561Z,360
2018-09-17T08:49:00.410Z,365
2018-09-17T08:50:10.070Z,360
2018-09-17T08:51:20.200Z,355
2018-09-17T08:52:30.466Z,350
2018-09-17T08:53:40.313Z,345
2018-09-17T08:54:50.436Z,340
2018-09-17T08:56:00.337Z,340
2018-09-17T08:57:10.190Z,335
2018-09-17T08:58:20.370Z,335
2018-09-17T08:59:30.287Z,330
2018-09-17T09:00:40.422Z,325
2018-09-17T09:01:50.139Z,320
2018-09-17T09:02:59.990Z,320
2018-09-17T09:04:10.022Z,320
2018-09-17T09:05:20.390Z,325
2018-09-17T09:06:30.253Z,330
2018-09-17T09:07:40.442Z,330
2018-09-17T09:08:50.590Z,330
2018-09-17T09:10:00.453Z,325
2018-09-17T09:11:10.343Z,325
2018-09-17T09:12:20.466Z,320
2018-09-17T09:13:30.057Z,325
2018-09-17T09:14:40.176Z,330
2018-09-17T09:15:50.306Z,335
2018-09-17T09:16:59.888Z,335
2018-09-17T09:18:09.464Z,345
2018-09-17T09:19:19.044Z,335
2018-09-17T09:20:28.349Z,335
2018-09-17T09:21:38.209Z,335
2018-09-17T09:22:48.065Z,330
2018-09-17T09:23:57.926Z,335
2018-09-17T09:25:07.784Z,340
2018-09-17T09:26:18.193Z,350
2018-09-17T09:27:28.106Z,365
2018-09-17T09:28:38.229Z,365
2018-09-17T09:29:48.084Z,365
2018-09-17T09:30:58.204Z,360
2018-09-17T09:32:07.788Z,365
2018-09-17T09:33:17.647Z,355
2018-09-17T09:34:26.953Z,355
2018-09-17T09:35:36.807Z,350
2018-09-17T09:36:46.149Z,345
2018-09-17T09:37:56.287Z,340
2018-09-17T09:39:06.148Z,335
2018-09-17T09:40:16.283Z,325
2018-09-17T09:41:26.143Z,315
2018-09-17T09:42:36.201Z,310
2018-09-17T09:43:46.333Z,315
2018-09-17T09:44:56.465Z,320
2018-09-17T09:46:06.322Z,325
2018-09-17T09:47:16.184Z,315
2018-09-17T09:48:26.043Z,315
2018-09-17T09:49:36.175Z,320
2018-09-17T09:50:46.327Z,325
2018-09-17T09:51:56.189Z,325
2018-09-17T09:53:06.054Z,330
2018-09-17T09:54:16.185Z,335
2018-09-17T09:55:26.315Z,335
2018-09-17T09:56:36.458Z,330
2018-09-17T09:57:46.594Z,330
2018-09-17T09:58:56.458Z,330
2018-09-17T10:00:06.325Z,335
2018-09-17T10:01:16.191Z,335
2018-09-17T10:02:26.335Z,340
2018-09-17T10:03:36.467Z,345
2018-09-17T10:04:46.056Z,340
2018-09-17T10:05:55.914Z,335
2018-09-17T10:07:05.500Z,335
2018-09-17T10:08:15.357Z,335
2018-09-17T10:09:24.665Z,335
2018-09-17T10:10:34.520Z,335
2018-09-17T10:11:45.116Z,345
2018-09-17T10:12:55.310Z,340
2018-09-17T10:14:05.447Z,335
2018-09-17T10:15:15.307Z,330
2018-09-17T10:16:25.443Z,330
2018-09-17T10:17:35.298Z,330
2018-09-17T10:18:45.441Z,330
2018-09-17T10:19:55.299Z,330
2018-09-17T10:21:05.433Z,335
2018-09-17T10:22:15.576Z,335
2018-09-17T10:23:25.496Z,340
2018-09-17T10:24:35.362Z,350
2018-09-17T10:25:45.217Z,350
2018-09-17T10:26:55.354Z,355
2018-09-17T10:28:05.211Z,350
2018-09-17T10:29:15.339Z,350
2018-09-17T10:30:25.485Z,355
2018-09-17T10:31:35.361Z,360
2018-09-17T10:32:45.228Z,360
2018-09-17T10:33:54.813Z,350
2018-09-17T10:35:05.012Z,340
2018-09-17T10:36:14.329Z,345
2018-09-17T10:37:24.460Z,345
2018-09-17T10:38:34.043Z,350
2018-09-17T10:39:44.024Z,350
2018-09-17T10:40:54.164Z,345
2018-09-17T10:42:04.037Z,350
2018-09-17T10:43:13.900Z,360
2018-09-17T10:44:24.040Z,380
2018-09-17T10:45:34.182Z,385
2018-09-17T10:46:44.051Z,400
2018-09-17T10:47:54.187Z,410
2018-09-17T10:49:03.769Z,420
2018-09-17T10:50:13.638Z,420
2018-09-17T10:51:23.234Z,420
2018-09-17T10:52:33.106Z,425
2018-09-17T10:53:42.689Z,420
2018-09-17T10:54:52.545Z,420
2018-09-17T10:56:02.403Z,425
2018-09-17T10:57:12.380Z,435
2018-09-17T10:58:22.298Z,435
2018-09-17T10:59:32.434Z,430
2018-09-17T11:00:42.574Z,420
2018-09-17T11:01:52.712Z,420
2018-09-17T11:03:02.847Z,430
2018-09-17T11:04:12.714Z,445
2018-09-17T11:05:22.575Z,455
2018-09-17T11:06:32.433Z,455
2018-09-17T11:07:42.023Z,445
2018-09-17T11:08:51.941Z,425
2018-09-17T11:10:02.079Z,425
2018-09-17T11:11:12.216Z,425
2018-09-17T11:12:22.074Z,425
2018-09-17T11:13:32.210Z,425
2018-09-17T11:14:42.072Z,415
2018-09-17T11:15:51.931Z,390
2018-09-17T11:17:01.519Z,380
2018-09-17T11:18:11.381Z,365
2018-09-17T11:19:21.520Z,360
2018-09-17T11:20:31.654Z,360
2018-09-17T11:21:41.514Z,365
2018-09-17T11:22:51.112Z,370
2018-09-17T11:24:01.248Z,380
2018-09-17T11:25:11.407Z,385
2018-09-17T11:26:21.612Z,390
2018-09-17T11:27:31.793Z,390
2018-09-17T11:28:41.653Z,375
2018-09-17T11:29:51.240Z,365
2018-09-17T11:31:00.554Z,350
2018-09-17T11:32:10.414Z,335
2018-09-17T11:33:20.548Z,330
2018-09-17T11:34:30.678Z,330
2018-09-17T11:35:40.815Z,335
2018-09-17T11:36:50.947Z,340
2018-09-17T11:38:00.811Z,355
2018-09-17T11:39:10.942Z,370
2018-09-17T11:40:20.524Z,370
2018-09-17T11:41:30.451Z,385
2018-09-17T11:42:40.266Z,375
2018-09-17T11:43:50.124Z,385
2018-09-17T11:45:00.312Z,390
2018-09-17T11:46:10.510Z,400
2018-09-17T11:47:20.642Z,405
2018-09-17T11:48:30.440Z,410
2018-09-17T11:49:40.570Z,485
2018-09-17T11:50:50.204Z,445
2018-09-17T11:52:00.335Z,370
2018-09-17T11:53:10.603Z,335
2018-09-17T11:54:20.738Z,340
2018-09-17T11:55:30.595Z,340
2018-09-17T11:56:40.789Z,350
2018-09-17T11:57:49.841Z,365
2018-09-17T11:58:59.135Z,375
2018-09-17T12:00:08.445Z,375
2018-09-17T12:01:18.581Z,375
2018-09-17T12:02:27.995Z,375
2018-09-17T12:03:38.131Z,375
2018-09-17T12:04:48.265Z,365
2018-09-17T12:05:58.401Z,355
2018-09-17T12:07:08.532Z,360
2018-09-17T12:08:18.746Z,360
2018-09-17T12:09:28.952Z,360
2018-09-17T12:10:38.813Z,360
2018-09-17T12:11:48.678Z,370
2018-09-17T12:12:58.814Z,370
2018-09-17T12:14:08.452Z,365
2018-09-17T12:15:18.584Z,360
2018-09-17T12:16:28.721Z,355
2018-09-17T12:17:38.306Z,355
2018-09-17T12:18:47.890Z,350
2018-09-17T12:19:58.071Z,350
2018-09-17T12:21:08.201Z,345
2018-09-17T12:22:17.511Z,345
2018-09-17T12:23:27.644Z,350
2018-09-17T12:24:37.789Z,360
2018-09-17T12:25:47.724Z,365
2018-09-17T12:26:57.603Z,370
2018-09-17T12:28:07.227Z,365
2018-09-17T12:29:16.537Z,370
2018-09-17T12:30:26.671Z,375
2018-09-17T12:31:36.584Z,390
2018-09-17T12:32:46.724Z,395
2018-09-17T12:33:57.224Z,405
2018-09-17T12:35:07.434Z,425
2018-09-17T12:36:17.567Z,465
2018-09-17T12:37:27.480Z,470
2018-09-17T12:38:37.336Z,485
2018-09-17T12:39:47.477Z,495
2018-09-17T12:40:57.334Z,525
2018-09-17T12:42:07.193Z,545
2018-09-17T12:43:17.380Z,560
2018-09-17T12:44:27.242Z,580
2018-09-17T12:45:36.557Z,600
2018-09-17T12:46:46.418Z,635
2018-09-17T12:47:56.018Z,690
2018-09-17T12:49:05.936Z,640
2018-09-17T12:50:15.801Z,590
2018-09-17T12:51:25.933Z,550
2018-09-17T12:52:36.067Z,520
2018-09-17T12:53:46.208Z,515
2018-09-17T12:54:56.152Z,510
2018-09-17T12:56:06.321Z,500
2018-09-17T12:57:16.671Z,485
2018-09-17T12:58:26.608Z,475
2018-09-17T12:59:36.468Z,505
2018-09-17T13:00:46.654Z,510
2018-09-17T13:01:56.514Z,505
2018-09-17T13:03:06.100Z,510
2018-09-17T13:04:15.961Z,520
2018-09-17T13:05:25.825Z,520
2018-09-17T13:06:36.026Z,530
2018-09-17T13:07:46.162Z,535
2018-09-17T13:08:56.302Z,530
2018-09-17T13:10:06.444Z,530
2018-09-17T13:11:16.308Z,540
2018-09-17T13:12:26.214Z,570
2018-09-17T13:13:35.808Z,595
2018-09-17T13:14:45.808Z,605
2018-09-17T13:15:55.690Z,585
2018-09-17T13:17:05.893Z,590
2018-09-17T13:18:16.087Z,595
2018-09-17T13:19:26.000Z,595
2018-09-17T13:20:35.861Z,570
2018-09-17T13:21:45.730Z,565
2018-09-17T13:22:55.314Z,555
2018-09-17T13:24:05.499Z,545
2018-09-17T13:25:15.362Z,535
2018-09-17T13:26:25.497Z,540
2018-09-17T13:27:35.635Z,570
2018-09-17T13:28:45.494Z,650
2018-09-17T13:29:55.411Z,590
2018-09-17T13:31:05.286Z,655
2018-09-17T13:32:15.796Z,575
2018-09-17T13:33:25.703Z,540
2018-09-17T13:34:35.295Z,540
2018-09-17T13:35:45.206Z,630
2018-09-17T13:36:54.522Z,610
2018-09-17T13:38:04.388Z,620
2018-09-17T13:39:14.256Z,660
2018-09-17T13:40:24.130Z,680
2018-09-17T13:41:34.322Z,635
2018-09-17T13:42:44.612Z,610
2018-09-17T13:43:54.789Z,585
2018-09-17T13:45:04.996Z,570
2018-09-17T13:46:14.877Z,555
2018-09-17T13:47:24.849Z,540
2018-09-17T13:48:35.087Z,550
2018-09-17T13:49:45.083Z,560
2018-09-17T13:50:54.719Z,550
2018-09-17T13:52:04.602Z,535
2018-09-17T13:53:15.128Z,530
2018-09-17T13:54:24.664Z,540
2018-09-17T13:55:34.858Z,525
2018-09-17T13:56:45.053Z,510
2018-09-17T13:57:55.243Z,490
2018-09-17T13:59:04.635Z,480
2018-09-17T14:00:14.541Z,470
2018-09-17T14:01:24.410Z,470
2018-09-17T14:02:34.595Z,475
2018-09-17T14:03:44.808Z,470
2018-09-17T14:04:55.041Z,480
2018-09-17T14:06:04.926Z,505
2018-09-17T14:07:14.793Z,520
2018-09-17T14:08:24.931Z,505
2018-09-17T14:09:34.801Z,475
2018-09-17T14:10:45.034Z,460
2018-09-17T14:11:54.939Z,465
2018-09-17T14:13:04.612Z,485
2018-09-17T14:14:14.509Z,505
2018-09-17T14:15:24.721Z,540
2018-09-17T14:16:34.676Z,545
2018-09-17T14:17:44.593Z,545
2018-09-17T14:18:54.460Z,590
2018-09-17T14:20:04.070Z,605
2018-09-17T14:21:14.210Z,605
2018-09-17T14:22:24.456Z,565
2018-09-17T14:23:34.356Z,515
2018-09-17T14:24:44.527Z,500
2018-09-17T14:25:54.435Z,485
2018-09-17T14:27:04.145Z,490
2018-09-17T14:28:14.094Z,485
2018-09-17T14:29:24.265Z,460
2018-09-17T14:30:34.132Z,450
2018-09-17T14:31:44.330Z,435
2018-09-17T14:32:54.934Z,425
2018-09-17T14:34:05.260Z,430
2018-09-17T14:35:15.308Z,445
2018-09-17T14:36:25.616Z,465
2018-09-17T14:37:35.826Z,475
2018-09-17T14:38:45.463Z,475
2018-09-17T14:39:55.340Z,480
2018-09-17T14:41:05.702Z,475
2018-09-17T14:42:15.583Z,460
2018-09-17T14:43:25.316Z,430
2018-09-17T14:44:35.250Z,415
2018-09-17T14:45:45.441Z,405
2018-09-17T14:46:55.604Z,395
2018-09-17T14:48:04.934Z,380
2018-09-17T14:49:15.184Z,370
2018-09-17T14:50:25.049Z,360
2018-09-17T14:51:35.279Z,350
2018-09-17T14:52:45.493Z,355
2018-09-17T14:53:55.562Z,370
2018-09-17T14:55:05.530Z,370
2018-09-17T14:56:15.133Z,360
2018-09-17T14:57:25.374Z,360
2018-09-17T14:58:35.978Z,485
2018-09-17T14:59:45.938Z,870
2018-09-17T15:00:56.121Z,800
2018-09-17T15:02:05.786Z,390
2018-09-17T15:03:16.020Z,410
2018-09-17T15:04:27.074Z,510
2018-09-17T15:05:37.035Z,820
2018-09-17T15:06:47.213Z,675
2018-09-17T15:07:57.667Z,1150
2018-09-17T15:09:07.951Z,1100
2018-09-17T15:10:18.831Z,945
2018-09-17T15:11:29.025Z,935
2018-09-17T15:12:39.213Z,870
2018-09-17T15:13:48.806Z,685
2018-09-17T15:14:58.602Z,570
2018-09-17T15:16:09.056Z,475
2018-09-17T15:17:18.943Z,450
2018-09-17T15:18:29.118Z,390
2018-09-17T15:19:39.340Z,370
2018-09-17T15:20:49.616Z,360
2018-09-17T15:21:59.577Z,360
2018-09-17T15:23:09.747Z,355
2018-09-17T15:24:19.614Z,345
2018-09-17T15:25:29.817Z,345
2018-09-17T15:26:39.885Z,340
2018-09-17T15:27:50.060Z,335
2018-09-17T15:28:59.982Z,335
2018-09-17T15:30:09.311Z,340
2018-09-17T15:31:20.220Z,335
2018-09-17T15:32:31.337Z,380
2018-09-17T15:33:41.635Z,330
2018-09-17T15:34:51.260Z,320
2018-09-17T15:36:01.426Z,315
2018-09-17T15:37:11.314Z,315
2018-09-17T15:38:21.817Z,325
2018-09-17T15:39:32.150Z,335
2018-09-17T15:40:42.894Z,335
2018-09-17T15:41:52.909Z,315
2018-09-17T15:43:03.093Z,285
2018-09-17T15:44:13.815Z,280
2018-09-17T15:45:24.036Z,290
2018-09-17T15:46:34.172Z,290
2018-09-17T15:47:44.313Z,265
2018-09-17T15:48:54.184Z,245
2018-09-17T15:50:04.404Z,235
2018-09-17T15:51:14.278Z,240
2018-09-17T15:52:25.029Z,250
2018-09-17T15:53:35.168Z,255
2018-09-17T15:54:45.315Z,255
2018-09-17T15:55:56.020Z,255
2018-09-17T15:57:05.952Z,265
2018-09-17T15:58:15.802Z,255
2018-09-17T15:59:25.082Z,245
2018-09-17T16:00:34.944Z,250
2018-09-17T16:01:44.584Z,235
2018-09-17T16:02:55.101Z,240
2018-09-17T16:04:05.312Z,240
2018-09-17T16:05:15.462Z,245
2018-09-17T16:06:25.047Z,230
2018-09-17T16:07:35.232Z,220
2018-09-17T16:08:45.773Z,205
2018-09-17T16:09:55.754Z,200
2018-09-17T16:11:05.910Z,185
2018-09-17T16:12:16.045Z,190
2018-09-17T16:13:26.231Z,190
2018-09-17T16:14:36.105Z,180
2018-09-17T16:15:45.964Z,180
2018-09-17T16:16:55.548Z,180
2018-09-17T16:18:05.133Z,180
2018-09-17T16:19:15.043Z,185
2018-09-17T16:20:24.914Z,180
2018-09-17T16:21:34.785Z,170
2018-09-17T16:22:44.917Z,165
2018-09-17T16:23:55.053Z,165
2018-09-17T16:25:04.691Z,160